Pagrindinis puslapis
METAR-TAF:

METAR-TAF

Oro uostai :

Karalienės Alijos tarptautinis oro uostas

Amanas-Queen Alia, Jordanija

platuma: 31-40N, ilguma: 035-58E, Aukštis: 721 m

Dabartinis oras

Ataskaita buvo paskelbta 1 valandą ir 8 minutes, ne 07:00 UTC
Vėjas 12 kt iš Vakarų/Pietvakarių
Temperatūra 23°C
Drėgmė 47%
Slėgis 1015 hPa
Matomumas: 5000 m
migla,

METAR: OJAI 240700Z 25012KT 5000 HZ NSC 23/11 Q1015 NOSIG

Laikas: 11:08 (08:08 UTC)

Prognozė

Ataskaita buvo paskelbta 3 valandos ir 8 minutes, ne 05:00 UTC
Prognozė galioja nuo 24 metu 06 UTC su 25 metu 12 UTC
Vėjas 12 kt iš Vakarų
Matomumas: 5000 m
migla
Tikimybė 40% :
Laikinai
nuo 24 metu 06 UTC su 24 metu 18 UTC
Vėjas 16 kt iš Vakarų/Šiaurės Vakarų su gūsio iki 26 kt
Matomumas: 3000 m
Dulkes pustymas
Tapsmas
nuo 24 metu 19 UTC su 24 metu 21 UTC
Mažai debesys ne aukštis 4000 ft

TAF: OJAI 240500Z 2406/2512 28012KT 5000 HZ NSC PROB40 TEMPO 2406/2418 29016G26KT 3000 BLDU BECMG 2419/2421 FEW040

Orai ataskaitas ir orų prognozės (METAR, TAF).

turimą stotys yra geltonos ir raudonos taškus žemėlapyje.

Perkelti pele per norėdami pamatyti stoties vardą.

Tada spustelėkite, norėdami matyti oro stebėjimo ir prognozės.

Norėdami pakeisti žemėlapį: spustelėkite ant žalios mygtukų su juodo kryžiaus žemyn,; žalią mygtuką su brūkšneliu, jei norite nutolinti; arba žalių rodyklių gretimoms žemėlapius.


METAR-TAF: